Pleasant Hill, Missouri
Current Conditions -  °F | °C
As of 10:53 AM on Thursday 23 Oct 2014 (Local Time) from KLXT Reporting Station
Overcast Overcast  
Wind Chill: 16°   Ceiling: 700
Heat Index: 16°   Visibility: 10mi
Dew Point: 14°   Wind: 8mph
Humidity: 90%   Direction: 180°S
Pressure: 30.12"   Gusts: NA
Location:  38.79°N, 94.27°W
Report Text: KLXT 231553Z AUTO 18007KT 10SM OVC007 16/14 A3012 RMK AO2 CIG 006V010 SLP195 T01560139
Loading
Personal Weather Stations






























Interactive Weather Map
Tropical Storm Tracking
New forecast layout! Learn more

10-Day Weather Forecast

Advertisements
Track Severe Weather on mobile